createdAt,value
2022-12-17T00:00:14.218Z,15.1
2022-12-17T00:01:17.117Z,15.1
2022-12-17T00:02:19.766Z,15
2022-12-17T00:03:22.956Z,15.2
2022-12-17T00:04:26.118Z,15
2022-12-17T00:05:28.349Z,15.2
2022-12-17T00:06:30.584Z,15
2022-12-17T00:07:33.055Z,15
2022-12-17T00:08:34.736Z,15.1
2022-12-17T00:09:37.212Z,15.1
2022-12-17T00:10:39.487Z,15.2
2022-12-17T00:11:41.443Z,15.2
2022-12-17T00:12:43.657Z,15.2
2022-12-17T00:13:45.867Z,15.2
2022-12-17T00:14:48.054Z,15.1
2022-12-17T00:15:50.670Z,15.2
2022-12-17T00:16:54.194Z,15.1
2022-12-17T00:17:58.489Z,15.2
2022-12-17T00:19:01.006Z,15.2
2022-12-17T00:20:03.209Z,15.2
2022-12-17T00:21:05.154Z,15.2
2022-12-17T00:22:07.362Z,15.2
2022-12-17T00:23:10.994Z,15.2
2022-12-17T00:24:13.519Z,15.2
2022-12-17T00:25:15.735Z,15.2
2022-12-17T00:26:17.978Z,15.2
2022-12-17T00:27:19.628Z,15.2
2022-12-17T00:28:21.282Z,15.2
2022-12-17T00:29:23.769Z,15.2
2022-12-17T00:30:26.263Z,15.2
2022-12-17T00:31:28.844Z,15.2
2022-12-17T00:32:31.661Z,15.2
2022-12-17T00:33:35.037Z,15.2
2022-12-17T00:34:39.001Z,15.2
2022-12-17T00:35:41.497Z,15.2
2022-12-17T00:36:44.014Z,15.2
2022-12-17T00:37:46.520Z,15.2
2022-12-17T00:38:49.118Z,15.3
2022-12-17T00:40:57.424Z,15.2
2022-12-17T00:41:59.765Z,15.3
2022-12-17T00:43:02.242Z,15.2
2022-12-17T00:44:04.453Z,15.3
2022-12-17T00:45:06.639Z,15.3
2022-12-17T00:46:08.837Z,15.2
2022-12-17T00:47:11.837Z,15.2
2022-12-17T00:48:14.423Z,15.3
2022-12-17T00:49:16.932Z,15.2
2022-12-17T00:50:18.863Z,15.3
2022-12-17T00:51:21.373Z,15.3
2022-12-17T00:52:23.582Z,15.2
2022-12-17T00:53:24.978Z,15.3
2022-12-17T00:54:27.181Z,15.2
2022-12-17T00:55:29.134Z,15.2
2022-12-17T00:56:31.614Z,15.3
2022-12-17T00:57:34.165Z,15.3
2022-12-17T00:58:36.662Z,15.3
2022-12-17T00:59:39.146Z,15.3
2022-12-17T01:00:41.450Z,15.3
2022-12-17T01:01:44.811Z,15.3
2022-12-17T01:02:47.771Z,15.3
2022-12-17T01:03:50.830Z,15.3
2022-12-17T01:06:00.314Z,15.3
2022-12-17T01:07:02.825Z,15.3
2022-12-17T01:08:05.040Z,15.3
2022-12-17T01:09:07.273Z,15.3
2022-12-17T01:10:10.902Z,15.3
2022-12-17T01:11:13.417Z,15.3
2022-12-17T01:12:15.921Z,15.3
2022-12-17T01:13:17.899Z,15.4
2022-12-17T01:14:19.856Z,15.4
2022-12-17T01:15:22.063Z,15.4
2022-12-17T01:16:24.752Z,15.3
2022-12-17T01:17:27.183Z,15.2
2022-12-17T01:18:29.401Z,15.3
2022-12-17T01:19:31.627Z,15.3
2022-12-17T01:20:34.159Z,15.3
2022-12-17T01:21:36.366Z,15.4
2022-12-17T01:22:38.863Z,15.3
2022-12-17T01:23:41.369Z,15.3
2022-12-17T01:24:43.580Z,15.4
2022-12-17T01:25:45.775Z,15.4
2022-12-17T01:26:47.828Z,15.5
2022-12-17T01:27:50.311Z,15.3
2022-12-17T01:28:54.144Z,15.4
2022-12-17T01:29:57.037Z,15.4
2022-12-17T01:30:59.085Z,15.4
2022-12-17T01:32:01.747Z,15.3
2022-12-17T01:33:04.628Z,15.4
2022-12-17T01:34:06.813Z,15.5
2022-12-17T01:35:09.333Z,15.5
2022-12-17T01:36:11.866Z,15.6
2022-12-17T01:37:14.389Z,15.3
2022-12-17T01:38:16.603Z,15.4
2022-12-17T01:39:19.125Z,15.4
2022-12-17T01:40:21.366Z,15.3
2022-12-17T01:41:23.850Z,15.4
2022-12-17T01:42:26.339Z,15.3
2022-12-17T01:43:28.273Z,15.3
2022-12-17T01:44:30.518Z,15.4
2022-12-17T01:45:33.158Z,15.4
2022-12-17T01:46:35.876Z,15.5
2022-12-17T01:47:38.100Z,15.4
2022-12-17T01:48:40.305Z,15.3
2022-12-17T01:49:42.265Z,15.5
2022-12-17T01:50:44.527Z,15.3
2022-12-17T01:51:47.057Z,15.5
2022-12-17T01:52:49.541Z,15.4
2022-12-17T01:53:52.040Z,15.5
2022-12-17T01:54:54.251Z,15.5
2022-12-17T01:55:56.749Z,15.5
2022-12-17T01:56:59.220Z,15.6
2022-12-17T01:58:01.459Z,15.4
2022-12-17T01:59:03.394Z,15.5
2022-12-17T02:00:05.637Z,15.7
2022-12-17T02:01:07.692Z,15.4
2022-12-17T02:02:11.938Z,15.5
2022-12-17T02:03:15.276Z,15.5
2022-12-17T02:04:18.275Z,15.3
2022-12-17T02:05:20.761Z,15.5
2022-12-17T02:06:23.294Z,15.4
2022-12-17T02:07:25.625Z,15.5
2022-12-17T02:08:27.949Z,15.5
2022-12-17T02:09:30.437Z,15.3
2022-12-17T02:10:32.635Z,15.3
2022-12-17T02:11:34.565Z,15.4
2022-12-17T02:12:36.191Z,15.4
2022-12-17T02:13:38.897Z,15.6
2022-12-17T02:14:41.420Z,15.5
2022-12-17T02:15:43.400Z,15.4
2022-12-17T02:16:45.180Z,15.6
2022-12-17T02:17:47.726Z,15.5
2022-12-17T02:18:50.245Z,15.5
2022-12-17T02:19:52.457Z,15.4
2022-12-17T02:20:54.940Z,15.5
2022-12-17T02:21:57.189Z,15.5
2022-12-17T02:22:59.395Z,15.5
2022-12-17T02:24:01.886Z,15.5
2022-12-17T02:25:04.425Z,15.4
2022-12-17T02:26:06.355Z,15.4
2022-12-17T02:27:08.560Z,15.5
2022-12-17T02:28:10.767Z,15.4
2022-12-17T02:29:13.286Z,15.6
2022-12-17T02:30:15.771Z,15.6
2022-12-17T02:31:18.130Z,15.6
2022-12-17T02:32:20.596Z,15.3
2022-12-17T02:33:23.084Z,15.5
2022-12-17T02:34:25.566Z,15.5
2022-12-17T02:35:27.470Z,15.3
2022-12-17T02:36:29.973Z,15.4
2022-12-17T02:37:32.489Z,15.6
2022-12-17T02:38:35.001Z,15.6
2022-12-17T02:39:37.210Z,15.4
2022-12-17T02:40:39.693Z,15.6
2022-12-17T02:41:42.186Z,15.6
2022-12-17T02:42:44.679Z,15.4
2022-12-17T02:43:47.180Z,15.5
2022-12-17T02:44:49.669Z,15.4
2022-12-17T02:45:51.768Z,15.5
2022-12-17T02:46:54.871Z,15.6
2022-12-17T02:47:57.370Z,15.6
2022-12-17T02:48:59.299Z,15.5
2022-12-17T02:50:01.489Z,15.6
2022-12-17T02:51:03.427Z,15.6
2022-12-17T02:52:05.911Z,15.4
2022-12-17T02:53:07.864Z,15.7
2022-12-17T02:54:10.378Z,15.5
2022-12-17T02:55:12.864Z,15.5
2022-12-17T02:56:15.075Z,15.5
2022-12-17T02:57:17.278Z,15.4
2022-12-17T02:58:19.492Z,15.5
2022-12-17T02:59:21.962Z,15.6
2022-12-17T03:00:24.546Z,15.5
2022-12-17T03:01:27.138Z,15.5
2022-12-17T03:02:31.036Z,15.6
2022-12-17T03:03:34.344Z,15.5
2022-12-17T03:04:38.942Z,15.4
2022-12-17T03:06:46.397Z,15.6
2022-12-17T03:07:48.602Z,15.5
2022-12-17T03:08:50.840Z,15.4
2022-12-17T03:09:52.812Z,15.6
2022-12-17T03:10:55.032Z,15.4
2022-12-17T03:11:57.509Z,15.4
2022-12-17T03:12:59.448Z,15.6
2022-12-17T03:14:02.204Z,15.4
2022-12-17T03:15:05.408Z,15.5
2022-12-17T03:16:07.637Z,15.8
2022-12-17T03:17:09.800Z,15.5
2022-12-17T03:18:12.828Z,15.7
2022-12-17T03:19:14.742Z,15.7
2022-12-17T03:20:16.943Z,15.4
2022-12-17T03:21:19.436Z,15.5
2022-12-17T03:22:21.629Z,15.7
2022-12-17T03:23:24.121Z,15.6
2022-12-17T03:24:26.337Z,15.6
2022-12-17T03:25:28.834Z,15.5
2022-12-17T03:26:31.319Z,15.5
2022-12-17T03:27:33.245Z,15.5
2022-12-17T03:28:35.484Z,15.5
2022-12-17T03:29:37.680Z,15.7
2022-12-17T03:31:45.287Z,15.5
2022-12-17T03:32:47.512Z,15.7
2022-12-17T03:33:49.756Z,15.4
2022-12-17T03:34:52.249Z,15.5
2022-12-17T03:35:54.467Z,15.6
2022-12-17T03:36:56.955Z,15.6
2022-12-17T03:37:59.457Z,15.5
2022-12-17T03:39:01.680Z,15.5
2022-12-17T03:40:04.193Z,15.6
2022-12-17T03:41:06.690Z,15.6
2022-12-17T03:42:09.201Z,15.6
2022-12-17T03:43:11.670Z,15.5
2022-12-17T03:44:14.158Z,15.4
2022-12-17T03:45:16.363Z,15.7
2022-12-17T03:46:19.005Z,15.5
2022-12-17T03:47:22.014Z,15.6
2022-12-17T03:48:24.517Z,15.4
2022-12-17T03:49:26.776Z,15.6
2022-12-17T03:50:29.270Z,15.7
2022-12-17T03:51:31.482Z,15.6
2022-12-17T03:52:33.969Z,15.5
2022-12-17T03:53:37.172Z,15.5
2022-12-17T03:54:40.657Z,15.6
2022-12-17T03:55:43.163Z,15.5
2022-12-17T03:56:45.667Z,15.7
2022-12-17T03:57:48.139Z,15.8
2022-12-17T03:58:50.347Z,15.6
2022-12-17T03:59:52.554Z,15.4
2022-12-17T04:00:55.040Z,15.8
2022-12-17T04:01:57.597Z,15.7
2022-12-17T04:03:01.041Z,15.7
2022-12-17T04:04:04.013Z,15.5
2022-12-17T04:05:06.549Z,15.6
2022-12-17T04:06:08.736Z,15.6
2022-12-17T04:07:11.222Z,15.6
2022-12-17T04:08:13.694Z,15.6
2022-12-17T04:09:15.621Z,15.5
2022-12-17T04:10:18.110Z,15.5
2022-12-17T04:11:20.344Z,15.7
2022-12-17T04:12:22.889Z,15.8
2022-12-17T04:13:25.568Z,15.7
2022-12-17T04:14:28.061Z,15.5
2022-12-17T04:15:30.615Z,15.5
2022-12-17T04:16:33.062Z,15.7
2022-12-17T04:17:35.258Z,15.5
2022-12-17T04:18:37.770Z,15.4
2022-12-17T04:19:40.265Z,15.5
2022-12-17T04:20:42.526Z,15.5
2022-12-17T04:21:44.722Z,15.7
2022-12-17T04:23:01.287Z,15.5
2022-12-17T04:24:03.302Z,15.5
2022-12-17T04:25:05.786Z,15.5
2022-12-17T04:26:08.021Z,15.5
2022-12-17T04:27:10.498Z,15.5
2022-12-17T04:28:12.697Z,15.6
2022-12-17T04:29:14.347Z,15.4
2022-12-17T04:30:16.852Z,15.5
2022-12-17T04:31:19.509Z,15.5
2022-12-17T04:32:22.274Z,15.6
2022-12-17T04:33:24.471Z,15.5
2022-12-17T04:34:26.418Z,15.3
2022-12-17T04:35:28.921Z,15.5
2022-12-17T04:36:31.468Z,15.3
2022-12-17T04:37:33.672Z,15.3
2022-12-17T04:38:35.600Z,15.5
2022-12-17T04:39:38.069Z,15.4
2022-12-17T04:40:40.012Z,15.5
2022-12-17T04:41:42.211Z,15.5
2022-12-17T04:42:44.723Z,15.5
2022-12-17T04:43:47.212Z,15.4
2022-12-17T04:44:49.698Z,15.5
2022-12-17T04:45:52.036Z,15.4
2022-12-17T04:46:58.022Z,15.5
2022-12-17T04:48:00.237Z,15.4
2022-12-17T04:49:02.449Z,15.6
2022-12-17T04:50:05.005Z,15.4
2022-12-17T04:51:07.195Z,15.4
2022-12-17T04:52:09.485Z,15.5
2022-12-17T04:53:11.969Z,15.5
2022-12-17T04:54:14.449Z,15.3
2022-12-17T04:55:16.644Z,15.3
2022-12-17T04:56:19.122Z,15.4
2022-12-17T04:57:21.352Z,15.4
2022-12-17T04:58:23.002Z,15.4
2022-12-17T04:59:25.533Z,15.5
2022-12-17T05:00:28.007Z,15.3
2022-12-17T05:01:30.834Z,15.3
2022-12-17T05:03:40.032Z,15.4
2022-12-17T05:04:43.671Z,15.3
2022-12-17T05:05:45.917Z,15.3
2022-12-17T05:06:48.398Z,15.3
2022-12-17T05:07:51.000Z,15.5
2022-12-17T05:08:53.490Z,15.4
2022-12-17T05:09:55.700Z,15.3
2022-12-17T05:10:58.201Z,15.5
2022-12-17T05:12:00.681Z,15.4
2022-12-17T05:13:02.328Z,15.3
2022-12-17T05:14:04.284Z,15.4
2022-12-17T05:15:06.505Z,15.5
2022-12-17T05:16:09.049Z,15.4
2022-12-17T05:17:11.138Z,15.3
2022-12-17T05:18:13.336Z,15.3
2022-12-17T05:19:15.539Z,15.4
2022-12-17T05:20:18.038Z,15.3
2022-12-17T05:21:20.549Z,15.4
2022-12-17T05:22:22.771Z,15.3
2022-12-17T05:23:25.046Z,15.4
2022-12-17T05:24:27.555Z,15.4
2022-12-17T05:25:30.116Z,15.3
2022-12-17T05:26:32.327Z,15.3
2022-12-17T05:27:34.827Z,15.5
2022-12-17T05:28:37.039Z,15.3
2022-12-17T05:29:39.264Z,15.3
2022-12-17T05:30:41.772Z,15.4
2022-12-17T05:31:44.160Z,15.4
2022-12-17T05:32:46.590Z,15.2
2022-12-17T05:33:49.059Z,15.4
2022-12-17T05:34:52.467Z,15.3
2022-12-17T05:35:59.992Z,15.4
2022-12-17T05:37:01.920Z,15.3
2022-12-17T05:38:04.129Z,15.3
2022-12-17T05:39:06.665Z,15.3
2022-12-17T05:41:13.308Z,15.3
2022-12-17T05:42:15.813Z,15.3
2022-12-17T05:43:18.310Z,15.3
2022-12-17T05:44:20.223Z,15.4
2022-12-17T05:45:22.740Z,15.3
2022-12-17T05:46:25.478Z,15.4
2022-12-17T05:47:28.296Z,15.3
2022-12-17T05:48:30.784Z,15.3
2022-12-17T05:49:33.009Z,15.3
2022-12-17T05:50:35.218Z,15.2
2022-12-17T05:51:39.554Z,15.3
2022-12-17T05:52:42.084Z,15.3
2022-12-17T05:53:44.590Z,15.2
2022-12-17T05:54:46.574Z,15.3
2022-12-17T05:55:48.254Z,15.3
2022-12-17T05:56:50.738Z,15.4
2022-12-17T05:58:57.938Z,15.2
2022-12-17T06:00:00.162Z,15.2
2022-12-17T06:01:02.404Z,15.3
2022-12-17T06:02:04.717Z,15.2
2022-12-17T06:03:07.148Z,15.2
2022-12-17T06:04:10.304Z,15.3
2022-12-17T06:05:13.047Z,15.3
2022-12-17T06:06:15.557Z,15.3
2022-12-17T06:07:17.766Z,15.3
2022-12-17T06:08:20.262Z,15.3
2022-12-17T06:09:22.762Z,15.3
2022-12-17T06:10:25.276Z,15.3
2022-12-17T06:11:27.224Z,15.3
2022-12-17T06:12:29.689Z,15.3
2022-12-17T06:13:32.369Z,15.3
2022-12-17T06:14:36.278Z,15.2
2022-12-17T06:15:38.469Z,15.3
2022-12-17T06:16:40.978Z,15.3
2022-12-17T06:17:43.507Z,15.3
2022-12-17T06:18:45.713Z,15.3
2022-12-17T06:19:47.923Z,15.3
2022-12-17T06:20:50.470Z,15.3
2022-12-17T06:21:52.682Z,15.3
2022-12-17T06:22:55.165Z,15.3
2022-12-17T06:23:57.120Z,15.3
2022-12-17T06:24:59.294Z,15.3
2022-12-17T06:26:01.835Z,15.2
2022-12-17T06:27:04.320Z,15.3
2022-12-17T06:28:06.232Z,15.2
2022-12-17T06:29:08.710Z,15.2
2022-12-17T06:31:16.371Z,15.3
2022-12-17T06:32:19.079Z,15.2
2022-12-17T06:33:21.321Z,15.2
2022-12-17T06:34:23.806Z,15.3
2022-12-17T06:35:26.296Z,15.3
2022-12-17T06:36:28.496Z,15.2
2022-12-17T06:37:30.698Z,15.3
2022-12-17T06:38:32.900Z,15.3
2022-12-17T06:39:35.164Z,15.2
2022-12-17T06:40:37.364Z,15.3
2022-12-17T06:41:39.901Z,15.2
2022-12-17T06:42:42.375Z,15.3
2022-12-17T06:43:44.610Z,15.3
2022-12-17T06:44:47.077Z,15.3
2022-12-17T06:45:49.024Z,15.2
2022-12-17T06:46:51.647Z,15.3
2022-12-17T06:47:53.735Z,15.3
2022-12-17T06:48:56.272Z,15.2
2022-12-17T06:51:03.471Z,15.2
2022-12-17T06:52:05.684Z,15.3
2022-12-17T06:53:07.627Z,15.2
2022-12-17T06:54:10.125Z,15.3
2022-12-17T06:55:12.357Z,15.3
2022-12-17T06:56:14.550Z,15.3
2022-12-17T06:57:16.541Z,15.2
2022-12-17T06:58:18.768Z,15.2
2022-12-17T06:59:21.259Z,15.2
2022-12-17T07:00:23.748Z,15.2
2022-12-17T07:01:26.500Z,15.3
2022-12-17T07:02:30.054Z,15.2
2022-12-17T07:03:33.088Z,15.2
2022-12-17T07:04:36.893Z,15.2
2022-12-17T07:05:39.101Z,15.2
2022-12-17T07:06:41.347Z,15.3
2022-12-17T07:07:43.830Z,15.2
2022-12-17T07:08:46.371Z,15.2
2022-12-17T07:09:48.652Z,15.2
2022-12-17T07:10:50.665Z,15.3
2022-12-17T07:12:00.129Z,15.3
2022-12-17T07:13:03.491Z,15.2
2022-12-17T07:14:05.700Z,15.2
2022-12-17T07:15:08.186Z,15.2
2022-12-17T07:16:10.914Z,15.2
2022-12-17T07:17:13.617Z,15.2
2022-12-17T07:18:16.108Z,15.3
2022-12-17T07:20:23.329Z,15.3
2022-12-17T07:21:25.967Z,15.2
2022-12-17T07:22:28.203Z,15.2
2022-12-17T07:23:30.699Z,15.2
2022-12-17T07:24:32.626Z,15.3
2022-12-17T07:25:35.109Z,15.3
2022-12-17T07:26:37.065Z,15.3
2022-12-17T07:27:39.279Z,15.3
2022-12-17T07:28:41.578Z,15.2
2022-12-17T07:29:44.094Z,15.2
2022-12-17T07:30:48.289Z,15.3
2022-12-17T07:31:51.928Z,15.3
2022-12-17T07:32:54.750Z,15.2
2022-12-17T07:33:57.744Z,15.3
2022-12-17T07:35:00.250Z,15.2
2022-12-17T07:36:02.206Z,15.2
2022-12-17T07:37:04.723Z,15.3
2022-12-17T07:38:06.667Z,15.3
2022-12-17T07:39:09.149Z,15.2
2022-12-17T07:40:11.068Z,15.2
2022-12-17T07:41:13.564Z,15.2
2022-12-17T07:42:16.079Z,15.2
2022-12-17T07:43:18.321Z,15.2
2022-12-17T07:44:20.872Z,15.2
2022-12-17T07:45:22.875Z,15.2
2022-12-17T07:46:25.409Z,15.2
2022-12-17T07:47:27.610Z,15.2
2022-12-17T07:48:29.255Z,15.2
2022-12-17T07:49:31.462Z,15.2
2022-12-17T07:50:33.948Z,15.3
2022-12-17T07:51:35.632Z,15.2
2022-12-17T07:52:38.174Z,15.3
2022-12-17T07:53:40.681Z,15.2
2022-12-17T07:54:43.166Z,15.2
2022-12-17T07:55:45.661Z,15.3
2022-12-17T07:56:47.912Z,15.3
2022-12-17T07:57:50.404Z,15.2
2022-12-17T07:58:52.912Z,15.2
2022-12-17T07:59:57.594Z,15.2
2022-12-17T08:01:00.227Z,15.2
2022-12-17T08:02:03.371Z,15.2
2022-12-17T08:03:06.428Z,15.2
2022-12-17T08:04:09.312Z,15.3
2022-12-17T08:05:12.428Z,15.2
2022-12-17T08:06:14.329Z,15.2
2022-12-17T08:07:15.993Z,15.2
2022-12-17T08:08:18.488Z,15.2
2022-12-17T08:09:20.974Z,15.2
2022-12-17T08:10:23.462Z,15.2
2022-12-17T08:11:25.385Z,15.2
2022-12-17T08:12:27.936Z,15.3
2022-12-17T08:13:30.458Z,15.2
2022-12-17T08:14:32.956Z,15.2
2022-12-17T08:15:35.225Z,15.2
2022-12-17T08:16:37.839Z,15.2
2022-12-17T08:17:40.328Z,15.2
2022-12-17T08:18:43.642Z,15.2
2022-12-17T08:19:45.867Z,15.2
2022-12-17T08:20:48.108Z,15.3
2022-12-17T08:21:50.327Z,15.2
2022-12-17T08:22:54.062Z,15.2
2022-12-17T08:23:56.290Z,15.2
2022-12-17T08:24:58.773Z,15.2
2022-12-17T08:26:00.959Z,15.2
2022-12-17T08:27:03.178Z,15.3
2022-12-17T08:29:10.740Z,15.2
2022-12-17T08:30:12.702Z,15.2
2022-12-17T08:31:14.866Z,15.2
2022-12-17T08:32:17.393Z,15.2
2022-12-17T08:33:19.879Z,15.2
2022-12-17T08:34:22.097Z,15.2
2022-12-17T08:35:24.579Z,15.2
2022-12-17T08:36:26.506Z,15.2
2022-12-17T08:37:28.700Z,15.2
2022-12-17T08:38:31.048Z,15.2
2022-12-17T08:39:33.346Z,15.2
2022-12-17T08:40:35.830Z,15.2
2022-12-17T08:41:38.326Z,15.1
2022-12-17T08:42:40.507Z,15.2
2022-12-17T08:43:42.743Z,15.2
2022-12-17T08:44:45.228Z,15.3
2022-12-17T08:45:47.821Z,15.2
2022-12-17T08:46:50.322Z,15.2
2022-12-17T08:47:52.807Z,15.3
2022-12-17T08:48:59.741Z,15.2
2022-12-17T08:50:01.944Z,15.2
2022-12-17T08:51:04.443Z,15.2
2022-12-17T08:52:06.650Z,15.2
2022-12-17T08:53:08.839Z,15.2
2022-12-17T08:54:11.494Z,15.3
2022-12-17T08:55:13.703Z,15.2
2022-12-17T08:56:16.187Z,15.2
2022-12-17T08:58:23.659Z,15.3
2022-12-17T08:59:26.305Z,15.2
2022-12-17T09:00:28.815Z,15.1
2022-12-17T09:01:31.576Z,15.2
2022-12-17T09:02:34.898Z,15.2
2022-12-17T09:03:38.954Z,15.2
2022-12-17T09:04:43.216Z,15.2
2022-12-17T09:05:45.699Z,15.2
2022-12-17T09:06:47.921Z,15.2
2022-12-17T09:07:50.398Z,15.2
2022-12-17T09:08:52.628Z,15.1
2022-12-17T09:09:54.854Z,15.2
2022-12-17T09:10:57.406Z,15.2
2022-12-17T09:11:59.609Z,15.2
2022-12-17T09:14:07.092Z,15.2
2022-12-17T09:15:09.580Z,15.2
2022-12-17T09:16:12.180Z,15.2
2022-12-17T09:17:14.946Z,15.2
2022-12-17T09:18:17.491Z,15.2
2022-12-17T09:19:19.965Z,15.2
2022-12-17T09:21:27.172Z,15.2
2022-12-17T09:22:29.108Z,15.2
2022-12-17T09:23:31.100Z,15.2
2022-12-17T09:24:33.309Z,15.2
2022-12-17T09:25:35.826Z,15.1
2022-12-17T09:26:38.348Z,15.2
2022-12-17T09:27:40.836Z,15.2
2022-12-17T09:28:43.500Z,15.2
2022-12-17T09:29:45.995Z,15.1
2022-12-17T09:30:48.324Z,15.2
2022-12-17T09:31:50.590Z,15.2
2022-12-17T09:32:52.814Z,15.2
2022-12-17T09:33:55.071Z,15.2
2022-12-17T09:34:56.962Z,15.1
2022-12-17T09:35:59.197Z,15.2
2022-12-17T09:37:01.392Z,15.2
2022-12-17T09:38:03.301Z,15.2
2022-12-17T09:39:05.591Z,15.2
2022-12-17T09:40:07.892Z,15.2
2022-12-17T09:41:11.049Z,15.2
2022-12-17T09:42:13.543Z,15.1
2022-12-17T09:43:15.200Z,15.1
2022-12-17T09:44:17.154Z,15.2
2022-12-17T09:45:19.386Z,15.2
2022-12-17T09:46:22.145Z,15.2
2022-12-17T09:47:25.099Z,15.2
2022-12-17T09:49:32.577Z,15.2
2022-12-17T09:50:34.868Z,15.1
2022-12-17T09:51:37.379Z,15.2
2022-12-17T09:52:39.900Z,15.2
2022-12-17T09:53:41.869Z,15.2
2022-12-17T09:54:44.391Z,15.2
2022-12-17T09:55:46.642Z,15.2
2022-12-17T09:56:48.585Z,15.2
2022-12-17T09:57:51.095Z,15.1
2022-12-17T09:58:53.567Z,15.2
2022-12-17T09:59:56.083Z,15.2
2022-12-17T10:02:03.972Z,15.1
2022-12-17T10:03:07.332Z,15.2
2022-12-17T10:04:11.026Z,15.2
2022-12-17T10:05:13.510Z,15
2022-12-17T10:07:20.748Z,15.1
2022-12-17T10:08:23.234Z,15.1
2022-12-17T10:09:25.761Z,15.2
2022-12-17T10:10:27.976Z,15.2
2022-12-17T10:12:35.014Z,15.2
2022-12-17T10:13:38.113Z,15.3
2022-12-17T10:14:41.672Z,15.1
2022-12-17T10:15:44.026Z,15.2
2022-12-17T10:16:46.121Z,15.2
2022-12-17T10:17:48.591Z,15.2
2022-12-17T10:18:50.835Z,15.2
2022-12-17T10:19:58.417Z,15.2
2022-12-17T10:21:00.906Z,15.2
2022-12-17T10:22:03.494Z,15.2
2022-12-17T10:23:05.145Z,15.2
2022-12-17T10:24:07.368Z,15.2
2022-12-17T10:25:09.278Z,15.1
2022-12-17T10:26:11.762Z,15.2
2022-12-17T10:27:14.243Z,15.2
2022-12-17T10:28:16.758Z,15.1
2022-12-17T10:29:19.249Z,15.1
2022-12-17T10:30:21.738Z,15.2
2022-12-17T10:31:24.312Z,15.2
2022-12-17T10:32:27.143Z,15.1
2022-12-17T10:33:29.333Z,15.2
2022-12-17T10:34:31.850Z,15.2
2022-12-17T10:35:33.790Z,15.1
2022-12-17T10:36:35.472Z,15.2
2022-12-17T10:37:38.029Z,15.2
2022-12-17T10:38:40.534Z,15.2
2022-12-17T10:39:42.467Z,15.2
2022-12-17T10:40:44.963Z,15.2
2022-12-17T10:41:47.170Z,15.2
2022-12-17T10:42:49.391Z,15.2
2022-12-17T10:43:51.918Z,15.2
2022-12-17T10:44:54.419Z,15.1
2022-12-17T10:45:56.700Z,15.2
2022-12-17T10:46:59.335Z,15.2
2022-12-17T10:48:01.540Z,15.2
2022-12-17T10:50:09.036Z,15.2
2022-12-17T10:51:10.980Z,15.3
2022-12-17T10:52:13.487Z,15.2
2022-12-17T10:53:16.007Z,15.2
2022-12-17T10:54:18.510Z,15.2
2022-12-17T10:55:20.986Z,15.2
2022-12-17T10:56:23.469Z,15.1
2022-12-17T10:57:25.946Z,15.2
2022-12-17T10:58:28.454Z,15.2
2022-12-17T10:59:30.965Z,15.2
2022-12-17T11:00:33.175Z,15.2
2022-12-17T11:01:35.883Z,15.2
2022-12-17T11:02:39.265Z,15.2
2022-12-17T11:03:43.038Z,15.1
2022-12-17T11:04:45.668Z,15.2
2022-12-17T11:05:48.174Z,15.2
2022-12-17T11:06:50.102Z,15.2
2022-12-17T11:07:52.571Z,15.2
2022-12-17T11:08:55.098Z,15.2
2022-12-17T11:09:57.574Z,15.2
2022-12-17T11:11:03.344Z,15.2
2022-12-17T11:12:07.757Z,15.2
2022-12-17T11:13:10.235Z,15.2
2022-12-17T11:14:12.713Z,15
2022-12-17T11:15:14.956Z,15.2
2022-12-17T11:16:17.522Z,15.2
2022-12-17T11:17:20.008Z,15.2
2022-12-17T11:18:22.491Z,15.1
2022-12-17T11:19:24.685Z,15.3
2022-12-17T11:20:26.889Z,15.1
2022-12-17T11:21:29.123Z,15.2
2022-12-17T11:22:31.621Z,15.2
2022-12-17T11:23:34.726Z,15.2
2022-12-17T11:24:39.102Z,15.2
2022-12-17T11:25:41.324Z,15.2
2022-12-17T11:26:43.797Z,15.2
2022-12-17T11:27:45.709Z,15.2
2022-12-17T11:28:48.178Z,15.2
2022-12-17T11:29:50.658Z,15.2
2022-12-17T11:30:52.679Z,15.2
2022-12-17T11:31:55.155Z,15.1
2022-12-17T11:32:57.631Z,15.2
2022-12-17T11:34:00.122Z,15
2022-12-17T11:35:01.761Z,15.2
2022-12-17T11:36:04.265Z,15.2
2022-12-17T11:37:06.769Z,15.2
2022-12-17T11:38:09.252Z,15.2
2022-12-17T11:39:11.742Z,15.1
2022-12-17T11:40:14.451Z,15.2
2022-12-17T11:41:17.060Z,15.2
2022-12-17T11:42:19.552Z,15.2
2022-12-17T11:43:21.745Z,15.1
2022-12-17T11:44:23.978Z,15.2
2022-12-17T11:45:26.178Z,15.2
2022-12-17T11:46:28.869Z,15
2022-12-17T11:47:31.656Z,15.2
2022-12-17T11:48:34.122Z,15.2
2022-12-17T11:49:37.679Z,15.2
2022-12-17T11:50:40.165Z,15.2
2022-12-17T11:51:42.367Z,15.1
2022-12-17T11:52:44.617Z,15.2
2022-12-17T11:53:47.112Z,15.2
2022-12-17T11:54:49.594Z,15.2
2022-12-17T11:55:52.113Z,15.1
2022-12-17T11:56:54.327Z,15.2
2022-12-17T11:57:56.554Z,15.2
2022-12-17T11:58:59.039Z,15.2
2022-12-17T12:01:06.605Z,15.1
2022-12-17T12:02:08.556Z,15.1
2022-12-17T12:03:11.363Z,15.1
2022-12-17T12:04:14.723Z,15.2
2022-12-17T12:05:17.535Z,15.1
2022-12-17T12:06:20.022Z,15.1
2022-12-17T12:07:22.517Z,15.2
2022-12-17T12:08:24.780Z,15.2
2022-12-17T12:09:27.264Z,15.2
2022-12-17T12:10:29.843Z,15.2
2022-12-17T12:11:32.625Z,15.2
2022-12-17T12:12:35.099Z,15.2
2022-12-17T12:13:37.586Z,15.2
2022-12-17T12:14:40.054Z,15.1
2022-12-17T12:15:42.695Z,15.1
2022-12-17T12:16:45.335Z,15.1
2022-12-17T12:17:48.187Z,15.3
2022-12-17T12:18:50.705Z,15.2
2022-12-17T12:19:53.192Z,15.2
2022-12-17T12:20:55.665Z,15.1
2022-12-17T12:21:58.151Z,15.2
2022-12-17T12:23:00.352Z,15.2
2022-12-17T12:24:02.876Z,15.2
2022-12-17T12:25:05.080Z,15.2
2022-12-17T12:26:06.998Z,15.1
2022-12-17T12:27:09.521Z,15
2022-12-17T12:28:11.740Z,15.2
2022-12-17T12:29:14.228Z,15.1
2022-12-17T12:30:16.432Z,15.2
2022-12-17T12:31:19.000Z,15.2
2022-12-17T12:32:21.252Z,15.1
2022-12-17T12:33:23.750Z,15.2
2022-12-17T12:34:26.258Z,15.2
2022-12-17T12:35:28.457Z,15.2
2022-12-17T12:36:30.945Z,15.2
2022-12-17T12:37:33.425Z,15.1
2022-12-17T12:38:37.192Z,15.1
2022-12-17T12:39:41.995Z,15.2
2022-12-17T12:40:43.920Z,15.2
2022-12-17T12:41:46.133Z,15.3
2022-12-17T12:42:48.448Z,15.2
2022-12-17T12:43:50.670Z,15.2
2022-12-17T12:44:52.868Z,15.2
2022-12-17T12:45:55.525Z,15.2
2022-12-17T12:46:59.102Z,15.2
2022-12-17T12:48:01.600Z,15.2
2022-12-17T12:49:03.841Z,15.1
2022-12-17T12:50:06.351Z,15.2
2022-12-17T12:51:08.560Z,15.2
2022-12-17T12:52:11.236Z,15.2
2022-12-17T12:53:13.803Z,15.3
2022-12-17T12:54:16.299Z,15.1
2022-12-17T12:55:18.798Z,15.1
2022-12-17T12:56:21.009Z,15
2022-12-17T12:57:22.925Z,15.2
2022-12-17T12:58:29.901Z,15.2
2022-12-17T12:59:31.805Z,15.1
2022-12-17T13:00:34.139Z,15.2
2022-12-17T13:01:36.948Z,15.2
2022-12-17T13:02:40.282Z,15.2
2022-12-17T13:03:43.519Z,15.1
2022-12-17T13:04:46.463Z,15.1
2022-12-17T13:05:48.685Z,15.2
2022-12-17T13:06:51.201Z,15.2
2022-12-17T13:07:53.692Z,15.2
2022-12-17T13:08:56.276Z,15.1
2022-12-17T13:09:58.775Z,15.1
2022-12-17T13:11:01.013Z,15.2
2022-12-17T13:12:03.211Z,15.2
2022-12-17T13:13:05.813Z,15.2
2022-12-17T13:14:08.347Z,15.2
2022-12-17T13:15:11.384Z,15.2
2022-12-17T13:16:13.705Z,15
2022-12-17T13:17:16.362Z,15.2
2022-12-17T13:18:18.867Z,15.1
2022-12-17T13:19:21.071Z,15.2
2022-12-17T13:20:23.585Z,15.1
2022-12-17T13:21:26.124Z,15.1
2022-12-17T13:22:28.651Z,15.1
2022-12-17T13:23:30.873Z,15.2
2022-12-17T13:24:33.068Z,15.1
2022-12-17T13:25:34.984Z,15.1
2022-12-17T13:26:37.210Z,15.2
2022-12-17T13:27:39.421Z,15.2
2022-12-17T13:28:41.528Z,15.2
2022-12-17T13:29:44.235Z,15.2
2022-12-17T13:30:46.778Z,15.1
2022-12-17T13:31:49.141Z,15.2
2022-12-17T13:32:51.865Z,15.1
2022-12-17T13:33:54.351Z,15.2
2022-12-17T13:34:57.695Z,15.1
2022-12-17T13:35:59.956Z,15.2
2022-12-17T13:37:02.452Z,15.2
2022-12-17T13:38:04.944Z,15.1
2022-12-17T13:39:06.877Z,15.1
2022-12-17T13:40:09.359Z,15.2
2022-12-17T13:41:11.834Z,15.2
2022-12-17T13:42:14.329Z,15.2
2022-12-17T13:43:16.288Z,15.2
2022-12-17T13:44:18.202Z,15.2
2022-12-17T13:45:20.445Z,15.2
2022-12-17T13:46:22.862Z,15.2
2022-12-17T13:47:25.779Z,15.2
2022-12-17T13:48:28.049Z,15.1
2022-12-17T13:49:30.265Z,15.1
2022-12-17T13:50:36.060Z,15.1
2022-12-17T13:51:39.307Z,15.1
2022-12-17T13:52:41.815Z,15.1
2022-12-17T13:53:44.304Z,15.2
2022-12-17T13:54:46.779Z,15.2
2022-12-17T13:55:49.030Z,15.2
2022-12-17T13:56:51.215Z,15.2
2022-12-17T13:57:53.453Z,15.2
2022-12-17T13:58:55.775Z,15.2
2022-12-17T13:59:58.309Z,15.2
2022-12-17T14:01:01.042Z,15.1
2022-12-17T14:02:03.676Z,15.2
2022-12-17T14:03:06.660Z,15.1
2022-12-17T14:04:09.279Z,15.1
2022-12-17T14:05:13.333Z,15.2
2022-12-17T14:06:15.587Z,15.2
2022-12-17T14:07:18.089Z,15.2
2022-12-17T14:08:20.593Z,15.2
2022-12-17T14:09:22.808Z,15.1
2022-12-17T14:10:25.069Z,15.2
2022-12-17T14:11:27.543Z,15.2
2022-12-17T14:12:30.034Z,15.2
2022-12-17T14:13:32.535Z,15.1
2022-12-17T14:14:34.756Z,15.2